Time,TemperatureF,DewpointF,PressureIn,WindDirection,WindDirectionDegrees,WindSpeedMPH,WindSpeedGustMPH,Humidity,HourlyPrecipIn,Conditions,Clouds,dailyrainin,SolarRadiationWatts/m^2,SoftwareType,DateUTC
2013-01-19 00:23:00,24.0,23.0,-100.00,NE,55,0.0,3.0,94,0.00,,,0.16,0.000000,,2013-01-19 05:23:00,
2013-01-19 00:33:00,24.0,23.0,-100.00,NE,55,0.0,3.0,94,0.00,,,0.16,0.000000,,2013-01-19 05:33:00,
2013-01-19 00:43:00,24.0,23.0,-100.00,NE,55,0.0,3.0,94,0.00,,,0.16,0.000000,,2013-01-19 05:43:00,
2013-01-19 00:53:00,24.0,23.0,-100.00,NE,55,0.0,3.0,94,0.00,,,0.16,0.000000,,2013-01-19 05:53:00,
2013-01-19 01:03:00,24.0,23.0,-100.00,NE,55,0.0,3.0,94,0.00,,,0.16,0.000000,,2013-01-19 06:03:00,
2013-01-19 01:33:00,23.0,22.0,-100.00,SE,126,1.0,2.0,94,0.00,,,0.16,0.000000,,2013-01-19 06:33:00,
2013-01-19 01:43:00,23.0,22.0,-100.00,SE,126,1.0,2.0,94,0.00,,,0.16,0.000000,,2013-01-19 06:43:00,
2013-01-19 01:53:00,23.0,22.0,-100.00,SE,126,1.0,2.0,94,0.00,,,0.16,0.000000,,2013-01-19 06:53:00,
2013-01-19 02:02:00,23.0,22.0,-100.00,SE,126,1.0,2.0,94,0.00,,,0.16,0.000000,,2013-01-19 07:02:00,
2013-01-19 02:33:00,23.0,22.0,-100.00,SE,126,1.0,2.0,94,0.00,,,0.16,0.000000,,2013-01-19 07:33:00,
2013-01-19 02:43:00,23.0,22.0,-100.00,SE,126,1.0,2.0,94,0.00,,,0.16,0.000000,,2013-01-19 07:43:00,
2013-01-19 02:53:00,23.0,22.0,-100.00,SE,126,1.0,2.0,94,0.00,,,0.16,0.000000,,2013-01-19 07:53:00,
2013-01-19 03:02:00,23.0,22.0,-100.00,SE,126,1.0,2.0,94,0.00,,,0.16,0.000000,,2013-01-19 08:02:00,
2013-01-19 03:33:00,22.0,20.0,-100.00,SE,126,1.0,3.0,93,0.00,,,0.16,0.000000,,2013-01-19 08:33:00,
2013-01-19 03:43:00,22.0,20.0,-100.00,SE,126,1.0,3.0,93,0.00,,,0.16,0.000000,,2013-01-19 08:43:00,
2013-01-19 03:53:00,22.0,20.0,-100.00,SE,126,1.0,3.0,93,0.00,,,0.16,0.000000,,2013-01-19 08:53:00,
2013-01-19 04:02:00,22.0,20.0,-100.00,SE,126,1.0,3.0,93,0.00,,,0.16,0.000000,,2013-01-19 09:02:00,
2013-01-19 04:33:00,21.0,19.0,-100.00,SE,126,1.0,3.0,92,0.00,,,0.16,0.000000,,2013-01-19 09:33:00,
2013-01-19 04:43:00,21.0,19.0,-100.00,SE,126,1.0,3.0,92,0.00,,,0.16,0.000000,,2013-01-19 09:43:00,
2013-01-19 04:53:00,21.0,19.0,-100.00,SE,126,1.0,3.0,92,0.00,,,0.16,0.000000,,2013-01-19 09:53:00,
2013-01-19 05:02:00,21.0,19.0,-100.00,SE,126,1.0,3.0,92,0.00,,,0.16,0.000000,,2013-01-19 10:02:00,
2013-01-19 05:33:00,22.0,20.0,-100.00,SE,126,2.0,3.0,93,0.00,,,0.16,0.000000,,2013-01-19 10:33:00,
2013-01-19 05:43:00,22.0,20.0,-100.00,SE,126,2.0,3.0,93,0.00,,,0.16,0.000000,,2013-01-19 10:43:00,
2013-01-19 05:53:00,22.0,20.0,-100.00,SE,126,2.0,3.0,93,0.00,,,0.16,0.000000,,2013-01-19 10:53:00,
2013-01-19 06:03:00,22.0,20.0,-100.00,SE,126,2.0,3.0,93,0.00,,,0.16,0.000000,,2013-01-19 11:03:00,
2013-01-19 07:48:00,20.0,18.0,-100.00,SE,126,1.0,3.0,92,0.00,,,0.16,0.000000,,2013-01-19 12:48:00,
2013-01-19 07:53:00,20.0,18.0,-100.00,SE,126,1.0,3.0,92,0.00,,,0.16,0.000000,,2013-01-19 12:53:00,
2013-01-19 08:03:00,20.0,18.0,-100.00,SE,126,1.0,3.0,92,0.00,,,0.16,0.000000,,2013-01-19 13:03:00,
2013-01-19 08:23:00,20.0,18.0,-100.00,SE,126,2.0,4.0,91,0.00,,,0.16,4.000000,,2013-01-19 13:23:00,
2013-01-19 08:34:00,20.0,18.0,-100.00,SE,126,2.0,4.0,91,0.00,,,0.16,4.000000,,2013-01-19 13:34:00,
2013-01-19 08:43:00,20.0,18.0,-100.00,SE,126,2.0,4.0,91,0.00,,,0.16,4.000000,,2013-01-19 13:43:00,
2013-01-19 08:54:00,20.0,18.0,-100.00,SE,126,2.0,4.0,91,0.00,,,0.16,4.000000,,2013-01-19 13:54:00,
2013-01-19 09:03:00,20.0,18.0,-100.00,SE,126,2.0,4.0,91,0.00,,,0.16,4.000000,,2013-01-19 14:03:00,
2013-01-19 09:34:00,24.0,22.0,-100.00,SE,126,1.0,3.0,91,0.00,,,0.16,47.000000,,2013-01-19 14:34:00,
2013-01-19 09:43:00,24.0,22.0,-100.00,SE,126,1.0,3.0,91,0.00,,,0.16,47.000000,,2013-01-19 14:43:00,
2013-01-19 09:54:00,24.0,22.0,-100.00,SE,126,1.0,3.0,91,0.00,,,0.16,47.000000,,2013-01-19 14:54:00,
2013-01-19 10:03:00,24.0,22.0,-100.00,SE,126,1.0,3.0,91,0.00,,,0.16,47.000000,,2013-01-19 15:03:00,
2013-01-19 10:23:00,33.0,30.0,-100.00,East,100,2.0,3.0,87,0.01,,,0.17,199.000000,,2013-01-19 15:23:00,
2013-01-19 10:34:00,33.0,30.0,-100.00,East,100,2.0,3.0,87,0.01,,,0.17,199.000000,,2013-01-19 15:34:00,
2013-01-19 10:43:00,33.0,30.0,-100.00,East,100,2.0,3.0,87,0.01,,,0.17,199.000000,,2013-01-19 15:43:00,
2013-01-19 10:53:00,33.0,30.0,-100.00,East,100,2.0,3.0,87,0.01,,,0.17,199.000000,,2013-01-19 15:53:00,
2013-01-19 11:03:00,33.0,30.0,-100.00,East,100,2.0,3.0,87,0.01,,,0.17,199.000000,,2013-01-19 16:03:00,
2013-01-19 11:33:00,44.0,26.0,-100.00,SE,138,2.0,4.0,48,0.00,,,0.10,313.000000,,2013-01-19 16:33:00,
2013-01-19 11:43:00,44.0,26.0,-100.00,SE,138,2.0,4.0,48,0.00,,,0.10,313.000000,,2013-01-19 16:43:00,
2013-01-19 11:54:00,44.0,26.0,-100.00,SE,138,2.0,4.0,48,0.00,,,0.10,313.000000,,2013-01-19 16:54:00,
2013-01-19 12:03:00,44.0,26.0,-100.00,SE,138,2.0,4.0,48,0.00,,,0.10,313.000000,,2013-01-19 17:03:00,
2013-01-19 12:04:00,51.0,12.0,-100.00,South,177,3.0,6.0,21,0.00,,,0.04,539.000000,,2013-01-19 17:04:00,
2013-01-19 12:38:00,51.0,12.0,-100.00,South,177,3.0,6.0,21,0.00,,,0.04,539.000000,,2013-01-19 17:38:00,
2013-01-19 12:50:00,51.0,12.0,-100.00,South,177,3.0,6.0,21,0.00,,,0.04,539.000000,,2013-01-19 17:50:00,
2013-01-19 12:55:00,51.0,12.0,-100.00,South,177,3.0,6.0,21,0.00,,,0.04,539.000000,,2013-01-19 17:55:00,
2013-01-19 13:04:00,52.0,13.0,-100.00,South,183,6.0,14.0,21,0.00,,,0.01,642.000000,,2013-01-19 18:04:00,
2013-01-19 13:38:00,52.0,13.0,-100.00,South,183,6.0,14.0,21,0.00,,,0.01,642.000000,,2013-01-19 18:38:00,
2013-01-19 13:48:00,52.0,13.0,-100.00,South,183,6.0,14.0,21,0.00,,,0.01,642.000000,,2013-01-19 18:48:00,
2013-01-19 14:03:00,52.0,13.0,-100.00,South,183,6.0,14.0,21,0.00,,,0.01,642.000000,,2013-01-19 19:03:00,
2013-01-19 14:04:00,53.0,13.0,-100.00,WSW,245,6.0,13.0,20,0.00,,,0.01,607.000000,,2013-01-19 19:04:00,
2013-01-19 14:40:00,53.0,13.0,-100.00,WSW,245,6.0,13.0,20,0.00,,,0.01,607.000000,,2013-01-19 19:40:00,
2013-01-19 14:50:00,53.0,13.0,-100.00,WSW,245,6.0,13.0,20,0.00,,,0.01,607.000000,,2013-01-19 19:50:00,
2013-01-19 14:59:00,53.0,13.0,-100.00,WSW,245,6.0,13.0,20,0.00,,,0.01,607.000000,,2013-01-19 19:59:00,
2013-01-19 15:04:00,52.0,21.0,-100.00,WSW,238,6.0,12.0,29,0.00,,,0.01,435.000000,,2013-01-19 20:04:00,
2013-01-19 15:28:00,52.0,21.0,-100.00,WSW,238,6.0,12.0,29,0.00,,,0.01,435.000000,,2013-01-19 20:28:00,
2013-01-19 15:39:00,52.0,21.0,-100.00,WSW,238,6.0,12.0,29,0.00,,,0.01,435.000000,,2013-01-19 20:39:00,
2013-01-19 15:50:00,52.0,21.0,-100.00,WSW,238,6.0,12.0,29,0.00,,,0.01,435.000000,,2013-01-19 20:50:00,
2013-01-19 15:59:00,52.0,21.0,-100.00,WSW,238,6.0,12.0,29,0.00,,,0.01,435.000000,,2013-01-19 20:59:00,
2013-01-19 16:04:00,51.0,23.0,-100.00,WSW,240,5.0,11.0,33,0.00,,,0.01,374.000000,,2013-01-19 21:04:00,
2013-01-19 16:53:00,51.0,23.0,-100.00,WSW,240,5.0,11.0,33,0.00,,,0.01,374.000000,,2013-01-19 21:53:00,
2013-01-19 17:01:00,51.0,23.0,-100.00,WSW,240,5.0,11.0,33,0.00,,,0.01,374.000000,,2013-01-19 22:01:00,
2013-01-19 17:04:00,45.0,23.0,-100.00,WSW,243,8.0,12.0,42,0.00,,,0.01,184.000000,,2013-01-19 22:04:00,
2013-01-19 17:36:00,45.0,23.0,-100.00,WSW,243,8.0,12.0,42,0.00,,,0.01,184.000000,,2013-01-19 22:36:00,
2013-01-19 17:49:00,45.0,23.0,-100.00,WSW,243,8.0,12.0,42,0.00,,,0.01,184.000000,,2013-01-19 22:49:00,
2013-01-19 17:59:00,45.0,23.0,-100.00,WSW,243,8.0,12.0,42,0.00,,,0.01,184.000000,,2013-01-19 22:59:00,
2013-01-19 18:04:00,36.0,23.0,-100.00,WSW,242,4.0,11.0,59,0.00,,,0.01,9.000000,,2013-01-19 23:04:00,
2013-01-19 18:35:00,36.0,23.0,-100.00,WSW,242,4.0,11.0,59,0.00,,,0.01,9.000000,,2013-01-19 23:35:00,
2013-01-19 18:52:00,36.0,23.0,-100.00,WSW,242,4.0,11.0,59,0.00,,,0.01,9.000000,,2013-01-19 23:52:00,
2013-01-19 19:04:00,31.0,27.0,-100.00,South,179,1.0,5.0,85,0.00,,,0.01,0.000000,,2013-01-20 00:04:00,
2013-01-19 19:38:00,31.0,27.0,-100.00,South,179,1.0,5.0,85,0.00,,,0.01,0.000000,,2013-01-20 00:38:00,
2013-01-19 20:04:00,29.0,26.0,-100.00,SW,234,3.0,5.0,90,0.00,,,0.01,0.000000,,2013-01-20 01:04:00,
2013-01-19 20:39:00,29.0,26.0,-100.00,SW,234,3.0,5.0,90,0.00,,,0.01,0.000000,,2013-01-20 01:39:00,
2013-01-19 20:52:00,29.0,26.0,-100.00,SW,234,3.0,5.0,90,0.00,,,0.01,0.000000,,2013-01-20 01:52:00,
2013-01-19 21:04:00,28.0,26.0,-100.00,East,81,2.0,5.0,91,0.00,,,0.01,0.000000,,2013-01-20 02:04:00,
2013-01-19 21:38:00,28.0,26.0,-100.00,East,81,2.0,5.0,91,0.00,,,0.01,0.000000,,2013-01-20 02:38:00,
2013-01-19 21:45:00,28.0,26.0,-100.00,East,81,2.0,5.0,91,0.00,,,0.01,0.000000,,2013-01-20 02:45:00,
2013-01-19 21:59:00,28.0,26.0,-100.00,East,81,2.0,5.0,91,0.00,,,0.01,0.000000,,2013-01-20 02:59:00,
2013-01-19 22:04:00,28.0,26.0,-100.00,ENE,63,3.0,6.0,93,0.00,,,0.01,0.000000,,2013-01-20 03:04:00,
2013-01-19 22:39:00,28.0,26.0,-100.00,ENE,63,3.0,6.0,93,0.00,,,0.01,0.000000,,2013-01-20 03:39:00,
2013-01-19 22:47:00,28.0,26.0,-100.00,ENE,63,3.0,6.0,93,0.00,,,0.01,0.000000,,2013-01-20 03:47:00,
2013-01-19 22:58:00,28.0,26.0,-100.00,ENE,63,3.0,6.0,93,0.00,,,0.01,0.000000,,2013-01-20 03:58:00,
2013-01-19 23:04:00,27.0,25.0,-100.00,NNE,30,1.0,5.0,93,0.00,,,0.01,0.000000,,2013-01-20 04:04:00,
2013-01-19 23:28:00,27.0,25.0,-100.00,NNE,30,1.0,5.0,93,0.00,,,0.01,0.000000,,2013-01-20 04:28:00,
2013-01-19 23:38:00,27.0,25.0,-100.00,NNE,30,1.0,5.0,93,0.00,,,0.01,0.000000,,2013-01-20 04:38:00,
2013-01-19 23:45:00,27.0,25.0,-100.00,NNE,30,1.0,5.0,93,0.00,,,0.01,0.000000,,2013-01-20 04:45:00,
2013-01-19 23:58:00,27.0,25.0,-100.00,NNE,30,1.0,5.0,93,0.00,,,0.01,0.000000,,2013-01-20 04:58:00,